createdAt,value
2018-06-18T00:00:11.012Z,97981.03
2018-06-18T00:00:42.583Z,97981.86
2018-06-18T00:01:14.158Z,97982.23
2018-06-18T00:01:45.765Z,97980.50
2018-06-18T00:02:17.349Z,97980.87
2018-06-18T00:02:49.051Z,97985.12
2018-06-18T00:03:20.634Z,97978.72
2018-06-18T00:03:52.208Z,97981.69
2018-06-18T00:04:23.840Z,97975.67
2018-06-18T00:04:55.445Z,97977.42
2018-06-18T00:05:27.040Z,97981.27
2018-06-18T00:05:58.612Z,97981.69
2018-06-18T00:06:30.204Z,97977.44
2018-06-18T00:07:01.793Z,97982.98
2018-06-18T00:07:33.373Z,97978.30
2018-06-18T00:08:04.969Z,97981.72
2018-06-18T00:08:36.552Z,97981.70
2018-06-18T00:09:08.120Z,97979.56
2018-06-18T00:09:39.789Z,97979.16
2018-06-18T00:10:11.397Z,97983.00
2018-06-18T00:10:43.002Z,97980.00
2018-06-18T00:11:14.609Z,97980.02
2018-06-18T00:11:46.216Z,97977.02
2018-06-18T00:12:17.789Z,97985.14
2018-06-18T00:12:49.398Z,97983.06
2018-06-18T00:13:20.981Z,97977.53
2018-06-18T00:13:52.584Z,97980.45
2018-06-18T00:14:24.180Z,97982.16
2018-06-18T00:14:55.812Z,97976.61
2018-06-18T00:15:27.397Z,97980.45
2018-06-18T00:15:58.981Z,97975.81
2018-06-18T00:16:30.589Z,97976.66
2018-06-18T00:17:02.193Z,97977.95
2018-06-18T00:17:33.764Z,97969.91
2018-06-18T00:18:05.375Z,97972.41
2018-06-18T00:18:36.990Z,97975.40
2018-06-18T00:19:08.592Z,97977.54
2018-06-18T00:19:40.164Z,97973.70
2018-06-18T00:20:12.002Z,97980.11
2018-06-18T00:20:43.605Z,97976.26
2018-06-18T00:21:15.218Z,97978.01
2018-06-18T00:21:46.816Z,97971.61
2018-06-18T00:22:18.434Z,97975.47
2018-06-18T00:22:50.041Z,97977.60
2018-06-18T00:23:21.625Z,97977.60
2018-06-18T00:23:53.206Z,97976.30
2018-06-18T00:24:24.790Z,97983.57
2018-06-18T00:24:56.366Z,97977.60
2018-06-18T00:25:28.012Z,97975.04
2018-06-18T00:25:59.621Z,97977.18
2018-06-18T00:26:31.225Z,97974.62
2018-06-18T00:27:02.829Z,97981.03
2018-06-18T00:27:34.428Z,97977.19
2018-06-18T00:28:06.010Z,97978.05
2018-06-18T00:28:37.595Z,97979.80
2018-06-18T00:29:09.177Z,97970.42
2018-06-18T00:29:40.772Z,97977.24
2018-06-18T00:30:12.364Z,97975.12
2018-06-18T00:30:44.014Z,97973.85
2018-06-18T00:31:15.611Z,97981.95
2018-06-18T00:31:47.226Z,97979.38
2018-06-18T00:32:18.833Z,97977.67
2018-06-18T00:32:50.432Z,97983.22
2018-06-18T00:33:22.042Z,97972.55
2018-06-18T00:33:53.612Z,97982.80
2018-06-18T00:34:25.188Z,97979.81
2018-06-18T00:34:56.764Z,97975.98
2018-06-18T00:35:28.355Z,97978.98
2018-06-18T00:35:59.997Z,97983.25
2018-06-18T00:36:31.589Z,97980.69
2018-06-18T00:37:03.193Z,97980.69
2018-06-18T00:37:34.777Z,97984.95
2018-06-18T00:38:06.361Z,97980.69
2018-06-18T00:38:37.945Z,97976.48
2018-06-18T00:39:09.515Z,97981.95
2018-06-18T00:39:41.091Z,97978.05
2018-06-18T00:40:12.671Z,97981.48
2018-06-18T00:40:44.250Z,97978.48
2018-06-18T00:41:15.828Z,97979.76
2018-06-18T00:41:47.430Z,97973.35
2018-06-18T00:42:19.024Z,97972.91
2018-06-18T00:42:50.629Z,97978.46
2018-06-18T00:43:22.224Z,97978.04
2018-06-18T00:43:53.810Z,97975.13
2018-06-18T00:44:25.418Z,97979.80
2018-06-18T00:44:57.005Z,97980.69
2018-06-18T00:45:28.613Z,97978.91
2018-06-18T00:46:00.305Z,97975.96
2018-06-18T00:46:31.909Z,97980.24
2018-06-18T00:47:03.504Z,97974.26
2018-06-18T00:47:35.114Z,97975.98
2018-06-18T00:48:06.697Z,97976.35
2018-06-18T00:48:38.281Z,97979.80
2018-06-18T00:49:09.866Z,97979.83
2018-06-18T00:49:41.469Z,97978.52
2018-06-18T00:50:13.077Z,97979.76
2018-06-18T00:50:44.666Z,97977.63
2018-06-18T00:51:16.232Z,97978.96
2018-06-18T00:51:47.859Z,97974.67
2018-06-18T00:52:19.455Z,97974.27
2018-06-18T00:52:51.038Z,97972.20
2018-06-18T00:53:22.625Z,97975.13
2018-06-18T00:53:54.225Z,97983.66
2018-06-18T00:54:25.813Z,97973.40
2018-06-18T00:54:57.413Z,97975.96
2018-06-18T00:55:29.017Z,97972.93
2018-06-18T00:56:00.621Z,97972.07
2018-06-18T00:56:32.202Z,97975.48
2018-06-18T00:57:03.831Z,97974.21
2018-06-18T00:57:35.446Z,97975.07
2018-06-18T00:58:07.029Z,97968.73
2018-06-18T00:58:38.624Z,97971.63
2018-06-18T00:59:10.206Z,97969.09
2018-06-18T00:59:41.789Z,97969.49
2018-06-18T01:00:13.377Z,97968.63
2018-06-18T01:00:44.980Z,97972.06
2018-06-18T01:01:16.558Z,97962.69
2018-06-18T01:01:48.145Z,97962.23
2018-06-18T01:02:19.762Z,97963.09
2018-06-18T01:02:51.343Z,97962.66
2018-06-18T01:03:22.925Z,97963.95
2018-06-18T01:03:54.496Z,97960.95
2018-06-18T01:04:26.068Z,97958.84
2018-06-18T01:04:57.645Z,97960.98
2018-06-18T01:05:29.250Z,97961.03
2018-06-18T01:06:00.837Z,97955.93
2018-06-18T01:06:32.408Z,97961.88
2018-06-18T01:07:04.018Z,97955.48
2018-06-18T01:07:35.630Z,97956.77
2018-06-18T01:08:07.220Z,97958.47
2018-06-18T01:08:38.840Z,97958.05
2018-06-18T01:09:10.441Z,97954.20
2018-06-18T01:09:42.041Z,97956.77
2018-06-18T01:10:13.629Z,97960.60
2018-06-18T01:10:45.241Z,97957.19
2018-06-18T01:11:16.850Z,97964.02
2018-06-18T01:11:48.461Z,97957.20
2018-06-18T01:12:20.074Z,97960.19
2018-06-18T01:12:51.698Z,97965.30
2018-06-18T01:13:23.280Z,97965.30
2018-06-18T01:13:54.862Z,97967.02
2018-06-18T01:14:26.451Z,97964.89
2018-06-18T01:14:58.024Z,97969.21
2018-06-18T01:15:29.616Z,97967.04
2018-06-18T01:16:01.188Z,97970.88
2018-06-18T01:16:32.789Z,97969.59
2018-06-18T01:17:04.393Z,97964.90
2018-06-18T01:17:35.976Z,97965.37
2018-06-18T01:18:07.553Z,97972.20
2018-06-18T01:18:39.154Z,97970.08
2018-06-18T01:19:10.732Z,97977.36
2018-06-18T01:19:42.310Z,97968.45
2018-06-18T01:20:13.900Z,97968.03
2018-06-18T01:20:45.476Z,97972.75
2018-06-18T01:21:17.057Z,97974.52
2018-06-18T01:21:48.657Z,97974.09
2018-06-18T01:22:20.261Z,97974.47
2018-06-18T01:22:51.913Z,97970.67
2018-06-18T01:23:23.547Z,97978.79
2018-06-18T01:23:55.126Z,97981.37
2018-06-18T01:24:26.704Z,97980.94
2018-06-18T01:24:58.348Z,97980.99
2018-06-18T01:25:29.918Z,97980.58
2018-06-18T01:26:01.492Z,97983.56
2018-06-18T01:26:33.094Z,97982.30
2018-06-18T01:27:04.701Z,97984.42
2018-06-18T01:27:36.286Z,97981.44
2018-06-18T01:28:07.877Z,97983.43
2018-06-18T01:28:39.444Z,97989.83
2018-06-18T01:29:11.048Z,97985.61
2018-06-18T01:29:42.652Z,97985.64
2018-06-18T01:30:14.261Z,97982.69
2018-06-18T01:30:45.873Z,97986.53
2018-06-18T01:31:17.487Z,97981.42
2018-06-18T01:31:49.077Z,97984.41
2018-06-18T01:32:20.684Z,97983.98
2018-06-18T01:32:52.260Z,97985.70
2018-06-18T01:33:23.845Z,97987.42
2018-06-18T01:33:55.463Z,97987.86
2018-06-18T01:34:27.065Z,97985.77
2018-06-18T01:34:58.674Z,97991.74
2018-06-18T01:35:30.277Z,97991.74
2018-06-18T01:36:01.862Z,97998.59
2018-06-18T01:36:33.442Z,97984.52
2018-06-18T01:37:05.109Z,97981.59
2018-06-18T01:37:36.691Z,97980.67
2018-06-18T01:38:08.259Z,97982.38
2018-06-18T01:38:39.860Z,97984.94
2018-06-18T01:39:11.510Z,97980.25
2018-06-18T01:39:43.083Z,97982.39
2018-06-18T01:40:14.685Z,97975.98
2018-06-18T01:40:46.294Z,97984.10
2018-06-18T01:41:17.901Z,97979.88
2018-06-18T01:41:49.487Z,97982.88
2018-06-18T01:42:21.097Z,97983.29
2018-06-18T01:42:52.685Z,97971.80
2018-06-18T01:43:24.266Z,97975.56
2018-06-18T01:43:55.870Z,97978.98
2018-06-18T01:44:27.493Z,97979.39
2018-06-18T01:44:59.076Z,97982.36
2018-06-18T01:45:30.654Z,97981.92
2018-06-18T01:46:02.230Z,97990.89
2018-06-18T01:46:33.796Z,97981.87
2018-06-18T01:47:05.374Z,97991.69
2018-06-18T01:47:36.963Z,97985.25
2018-06-18T01:48:08.568Z,97982.27
2018-06-18T01:48:40.178Z,97986.92
2018-06-18T01:49:11.772Z,97981.37
2018-06-18T01:49:43.413Z,97980.52
2018-06-18T01:50:15.009Z,97983.41
2018-06-18T01:50:46.595Z,97988.36
2018-06-18T01:51:18.176Z,97983.64
2018-06-18T01:51:49.744Z,97985.73
2018-06-18T01:52:21.322Z,97986.66
2018-06-18T01:52:52.925Z,97985.81
2018-06-18T01:53:24.505Z,97985.88
2018-06-18T01:53:56.081Z,97990.59
2018-06-18T01:54:27.755Z,97991.88
2018-06-18T01:54:59.369Z,97989.74
2018-06-18T01:55:30.985Z,97986.73
2018-06-18T01:56:02.573Z,97989.33
2018-06-18T01:56:34.178Z,97992.72
2018-06-18T01:57:05.791Z,97995.27
2018-06-18T01:57:37.379Z,97990.14
2018-06-18T01:58:08.962Z,97992.70
2018-06-18T01:58:40.567Z,97994.41
2018-06-18T01:59:12.153Z,97992.28
2018-06-18T01:59:43.730Z,97996.11
2018-06-18T02:00:15.373Z,97996.50
2018-06-18T02:00:46.948Z,97992.66
2018-06-18T02:01:18.549Z,97997.34
2018-06-18T02:01:50.142Z,97996.47
2018-06-18T02:02:21.746Z,97989.63
2018-06-18T02:02:53.354Z,97995.17
2018-06-18T02:03:24.924Z,97997.27
2018-06-18T02:03:56.506Z,97993.89
2018-06-18T02:04:28.097Z,97997.69
2018-06-18T02:04:59.667Z,97999.38
2018-06-18T02:05:31.476Z,98000.64
2018-06-18T02:06:03.052Z,98002.73
2018-06-18T02:06:34.632Z,97999.78
2018-06-18T02:07:06.218Z,97996.80
2018-06-18T02:07:37.867Z,98004.02
2018-06-18T02:08:09.461Z,97999.31
2018-06-18T02:08:41.041Z,98008.69
2018-06-18T02:09:12.626Z,98005.27
2018-06-18T02:09:44.229Z,98005.28
2018-06-18T02:10:15.812Z,98003.55
2018-06-18T02:10:47.412Z,98005.27
2018-06-18T02:11:19.017Z,98000.14
2018-06-18T02:11:50.612Z,98006.55
2018-06-18T02:12:22.193Z,98004.42
2018-06-18T02:12:53.793Z,98007.83
2018-06-18T02:13:25.401Z,98002.70
2018-06-18T02:13:56.985Z,98002.27
2018-06-18T02:14:28.575Z,98001.42
2018-06-18T02:15:00.171Z,98003.99
2018-06-18T02:15:31.754Z,98007.83
2018-06-18T02:16:03.589Z,98007.47
2018-06-18T02:16:35.170Z,98005.70
2018-06-18T02:17:06.783Z,98006.14
2018-06-18T02:17:38.365Z,98007.84
2018-06-18T02:18:09.966Z,98009.98
2018-06-18T02:18:41.554Z,98011.70
2018-06-18T02:19:13.194Z,98014.67
2018-06-18T02:19:44.778Z,98012.13
2018-06-18T02:20:16.351Z,98014.27
2018-06-18T02:20:47.929Z,98012.59
2018-06-18T02:21:19.570Z,98018.11
2018-06-18T02:21:51.177Z,98018.95
2018-06-18T02:22:22.833Z,98020.23
2018-06-18T02:22:54.409Z,98023.22
2018-06-18T02:23:25.988Z,98026.20
2018-06-18T02:23:57.584Z,98028.34
2018-06-18T02:24:29.169Z,98022.36
2018-06-18T02:25:00.834Z,98026.63
2018-06-18T02:25:32.427Z,98026.22
2018-06-18T02:26:03.999Z,98033.91
2018-06-18T02:26:35.638Z,98030.06
2018-06-18T02:27:07.236Z,98028.78
2018-06-18T02:27:38.841Z,98033.48
2018-06-18T02:28:10.449Z,98033.95
2018-06-18T02:28:56.908Z,98031.34
2018-06-18T02:30:39.358Z,98035.59
2018-06-18T02:32:22.882Z,98036.03
2018-06-18T02:33:15.264Z,98034.33
2018-06-18T02:34:57.812Z,98038.59
2018-06-18T02:35:35.184Z,98037.33
2018-06-18T02:36:12.450Z,98041.15
2018-06-18T02:36:49.659Z,98039.02
2018-06-18T02:37:38.990Z,98031.77
2018-06-18T02:39:06.468Z,98037.31
2018-06-18T02:39:38.054Z,98032.20
2018-06-18T02:40:09.664Z,98036.03
2018-06-18T02:40:41.265Z,98036.00
2018-06-18T02:41:12.857Z,98041.57
2018-06-18T02:41:44.475Z,98038.33
2018-06-18T02:42:16.114Z,98040.75
2018-06-18T02:42:47.718Z,98044.64
2018-06-18T02:43:19.317Z,98041.25
2018-06-18T02:43:50.905Z,98049.86
2018-06-18T02:44:22.495Z,98039.72
2018-06-18T02:44:54.077Z,98042.34
2018-06-18T02:45:25.661Z,98049.26
2018-06-18T02:45:57.246Z,98044.22
2018-06-18T02:46:28.820Z,98044.30
2018-06-18T02:47:00.405Z,98041.77
2018-06-18T02:47:32.005Z,98040.19
2018-06-18T02:48:03.590Z,98041.05
2018-06-18T02:48:35.183Z,98042.83
2018-06-18T02:49:06.789Z,98043.28
2018-06-18T02:49:38.407Z,98039.09
2018-06-18T02:50:09.983Z,98045.06
2018-06-18T02:50:41.566Z,98045.94
2018-06-18T02:51:13.132Z,98047.28
2018-06-18T02:51:44.700Z,98046.02
2018-06-18T02:52:16.277Z,98052.46
2018-06-18T02:52:47.894Z,98048.63
2018-06-18T02:53:19.464Z,98052.04
2018-06-18T02:53:51.059Z,98057.03
2018-06-18T02:54:22.659Z,98054.82
2018-06-18T02:54:54.236Z,98056.45
2018-06-18T02:55:26.050Z,98057.20
2018-06-18T02:55:57.628Z,98056.64
2018-06-18T02:56:29.298Z,98061.15
2018-06-18T02:57:00.914Z,98058.94
2018-06-18T02:57:32.737Z,98055.18
2018-06-18T02:58:04.341Z,98057.37
2018-06-18T02:58:35.925Z,98059.17
2018-06-18T02:59:07.513Z,98054.99
2018-06-18T02:59:39.116Z,98061.48
2018-06-18T03:00:10.697Z,98057.31
2018-06-18T03:00:42.320Z,98057.81
2018-06-18T03:01:13.986Z,98058.33
2018-06-18T03:01:45.566Z,98062.66
2018-06-18T03:02:17.165Z,98058.45
2018-06-18T03:02:48.766Z,98068.34
2018-06-18T03:03:20.363Z,98059.84
2018-06-18T03:03:51.981Z,98067.66
2018-06-18T03:04:23.575Z,98068.93
2018-06-18T03:04:55.157Z,98065.12
2018-06-18T03:05:26.770Z,98068.11
2018-06-18T03:05:58.366Z,98070.30
2018-06-18T03:06:29.960Z,98070.32
2018-06-18T03:07:01.625Z,98065.20
2018-06-18T03:07:33.224Z,98069.52
2018-06-18T03:08:04.819Z,98070.39
2018-06-18T03:08:36.408Z,98065.70
2018-06-18T03:09:07.986Z,98065.75
2018-06-18T03:09:39.570Z,98070.46
2018-06-18T03:10:11.177Z,98070.10
2018-06-18T03:10:42.782Z,98076.45
2018-06-18T03:11:14.391Z,98069.67
2018-06-18T03:11:45.974Z,98071.39
2018-06-18T03:12:17.607Z,98072.25
2018-06-18T03:12:49.199Z,98066.70
2018-06-18T03:13:20.783Z,98073.97
2018-06-18T03:13:52.392Z,98072.30
2018-06-18T03:14:23.991Z,98071.89
2018-06-18T03:14:55.584Z,98073.16
2018-06-18T03:15:27.181Z,98074.02
2018-06-18T03:15:58.765Z,98074.45
2018-06-18T03:16:30.360Z,98074.47
2018-06-18T03:17:01.964Z,98076.59
2018-06-18T03:17:33.532Z,98074.03
2018-06-18T03:18:05.133Z,98076.23
2018-06-18T03:18:36.826Z,98068.11
2018-06-18T03:19:08.448Z,98071.53
2018-06-18T03:19:58.962Z,98075.81
2018-06-18T03:21:42.426Z,98070.28
2018-06-18T03:23:25.957Z,98071.59
2018-06-18T03:24:53.976Z,98072.89
2018-06-18T03:25:31.294Z,98074.17
2018-06-18T03:26:23.727Z,98077.17
2018-06-18T03:28:07.301Z,98081.84
2018-06-18T03:28:44.870Z,98080.98
2018-06-18T03:29:16.468Z,98079.29
2018-06-18T03:29:48.060Z,98078.43
2018-06-18T03:30:19.642Z,98081.84
2018-06-18T03:30:51.226Z,98086.97
2018-06-18T03:31:22.830Z,98077.20
2018-06-18T03:31:54.434Z,98075.02
2018-06-18T03:32:26.042Z,98079.33
2018-06-18T03:32:57.649Z,98078.91
2018-06-18T03:33:29.301Z,98086.59
2018-06-18T03:34:00.910Z,98074.64
2018-06-18T03:34:32.518Z,98084.89
2018-06-18T03:35:04.104Z,98085.75
2018-06-18T03:35:35.740Z,98090.44
2018-06-18T03:36:07.354Z,98085.34
2018-06-18T03:36:38.938Z,98090.88
2018-06-18T03:37:10.570Z,98090.52
2018-06-18T03:37:42.144Z,98085.81
2018-06-18T03:38:13.770Z,98094.34
2018-06-18T03:38:45.340Z,98090.92
2018-06-18T03:39:16.962Z,98091.78
2018-06-18T03:39:48.546Z,98087.09
2018-06-18T03:40:20.121Z,98096.05
2018-06-18T03:40:51.716Z,98094.77
2018-06-18T03:41:23.325Z,98091.80
2018-06-18T03:41:54.905Z,98092.65
2018-06-18T03:42:26.476Z,98096.06
2018-06-18T03:42:58.067Z,98089.73
2018-06-18T03:43:29.725Z,98095.64
2018-06-18T03:44:01.330Z,98092.23
2018-06-18T03:44:32.941Z,98089.75
2018-06-18T03:45:04.549Z,98091.42
2018-06-18T03:45:36.138Z,98091.81
2018-06-18T03:46:07.722Z,98096.94
2018-06-18T03:46:39.306Z,98093.58
2018-06-18T03:47:10.914Z,98094.84
2018-06-18T03:47:42.522Z,98088.48
2018-06-18T03:48:14.110Z,98091.02
2018-06-18T03:48:45.753Z,98087.61
2018-06-18T03:49:17.361Z,98094.43
2018-06-18T03:49:48.960Z,98092.30
2018-06-18T03:50:20.542Z,98093.58
2018-06-18T03:50:52.134Z,98094.01
2018-06-18T03:51:23.745Z,98095.72
2018-06-18T03:51:55.353Z,98096.56
2018-06-18T03:52:26.941Z,98096.16
2018-06-18T03:52:58.541Z,98093.20
2018-06-18T03:53:30.125Z,98090.25
2018-06-18T03:54:01.760Z,98094.92
2018-06-18T03:54:33.349Z,98095.78
2018-06-18T03:55:04.920Z,98092.38
2018-06-18T03:55:36.512Z,98092.80
2018-06-18T03:56:08.091Z,98092.38
2018-06-18T03:56:39.701Z,98093.23
2018-06-18T03:57:11.314Z,98094.14
2018-06-18T03:57:42.917Z,98097.51
2018-06-18T03:58:14.498Z,98092.43
2018-06-18T03:58:46.138Z,98092.85
2018-06-18T03:59:17.748Z,98096.27
2018-06-18T03:59:49.333Z,98094.13
2018-06-18T04:00:20.916Z,98098.34
2018-06-18T04:00:52.484Z,98097.51
2018-06-18T04:01:24.056Z,98099.64
2018-06-18T04:02:10.521Z,98095.41
2018-06-18T04:03:53.958Z,98097.55
2018-06-18T04:05:27.412Z,98097.55
2018-06-18T04:06:04.621Z,98090.73
2018-06-18T04:06:52.073Z,98099.69
2018-06-18T04:07:31.254Z,98098.41
2018-06-18T04:08:02.833Z,98094.14
2018-06-18T04:08:34.437Z,98100.55
2018-06-18T04:09:06.018Z,98101.83
2018-06-18T04:09:37.625Z,98099.27
2018-06-18T04:10:29.143Z,98101.41
2018-06-18T04:12:04.562Z,98100.55
2018-06-18T04:12:36.142Z,98103.97
2018-06-18T04:13:07.725Z,98105.67
2018-06-18T04:13:39.329Z,98098.92
2018-06-18T04:14:10.937Z,98103.55
2018-06-18T04:14:42.520Z,98107.83
2018-06-18T04:15:14.110Z,98105.73
2018-06-18T04:15:45.676Z,98103.98
2018-06-18T04:16:17.260Z,98102.70
2018-06-18T04:16:48.852Z,98104.88
2018-06-18T04:17:20.460Z,98106.97
2018-06-18T04:17:52.049Z,98107.81
2018-06-18T04:18:23.658Z,98106.53
2018-06-18T04:18:55.251Z,98110.37
2018-06-18T04:19:26.834Z,98105.67
2018-06-18T04:19:58.442Z,98108.66
2018-06-18T04:20:30.091Z,98103.54
2018-06-18T04:21:01.674Z,98099.28
2018-06-18T04:21:33.279Z,98101.84
2018-06-18T04:22:04.865Z,98105.23
2018-06-18T04:22:36.445Z,98098.86
2018-06-18T04:23:08.020Z,98105.23
2018-06-18T04:23:39.626Z,98103.96
2018-06-18T04:24:11.229Z,98097.99
2018-06-18T04:24:42.851Z,98095.00
2018-06-18T04:25:14.432Z,98094.17
2018-06-18T04:25:46.070Z,98100.55
2018-06-18T04:26:17.673Z,98104.81
2018-06-18T04:26:49.254Z,98106.89
2018-06-18T04:27:20.857Z,98105.12
2018-06-18T04:27:52.439Z,98097.71
2018-06-18T04:28:24.032Z,98101.20
2018-06-18T04:28:55.638Z,98104.53
2018-06-18T04:29:27.242Z,98102.61
2018-06-18T04:29:58.840Z,98108.55
2018-06-18T04:30:30.440Z,98103.84
2018-06-18T04:31:02.106Z,98105.35
2018-06-18T04:31:33.715Z,98098.48
2018-06-18T04:32:05.368Z,98102.95
2018-06-18T04:32:36.971Z,98100.73
2018-06-18T04:33:08.586Z,98099.94
2018-06-18T04:33:40.169Z,98094.67
2018-06-18T04:34:11.749Z,98097.58
2018-06-18T04:34:43.334Z,98097.32
2018-06-18T04:35:14.917Z,98098.52
2018-06-18T04:35:46.505Z,98097.24
2018-06-18T04:36:18.093Z,98096.50
2018-06-18T04:36:49.681Z,98098.00
2018-06-18T04:37:21.314Z,98094.02
2018-06-18T04:37:52.944Z,98096.06
2018-06-18T04:38:24.541Z,98099.41
2018-06-18T04:38:56.112Z,98094.64
2018-06-18T04:39:27.685Z,98092.80
2018-06-18T04:39:59.265Z,98094.74
2018-06-18T04:40:30.856Z,98094.53
2018-06-18T04:41:02.469Z,98096.77
2018-06-18T04:41:34.069Z,98097.63
2018-06-18T04:42:05.677Z,98097.52
2018-06-18T04:42:37.309Z,98097.83
2018-06-18T04:43:14.666Z,98093.34
2018-06-18T04:44:04.064Z,98094.77
2018-06-18T04:45:41.606Z,98097.99
2018-06-18T04:46:13.205Z,98100.09
2018-06-18T04:46:44.809Z,98095.49
2018-06-18T04:47:37.232Z,98097.72
2018-06-18T04:48:14.606Z,98098.44
2018-06-18T04:49:03.885Z,98098.17
2018-06-18T04:50:48.430Z,98091.73
2018-06-18T04:51:20.005Z,98089.35
2018-06-18T04:51:51.594Z,98098.39
2018-06-18T04:52:23.173Z,98099.78
2018-06-18T04:52:54.793Z,98092.19
2018-06-18T04:53:26.391Z,98098.35
2018-06-18T04:53:58.002Z,98099.50
2018-06-18T04:54:29.604Z,98101.59
2018-06-18T04:55:01.215Z,98098.56
2018-06-18T04:55:32.806Z,98099.50
2018-06-18T04:56:04.413Z,98099.25
2018-06-18T04:56:36.082Z,98101.25
2018-06-18T04:57:07.666Z,98099.39
2018-06-18T04:57:39.253Z,98100.19
2018-06-18T04:58:10.853Z,98094.83
2018-06-18T04:58:42.438Z,98103.63
2018-06-18T04:59:14.016Z,98101.66
2018-06-18T04:59:45.621Z,98111.64
2018-06-18T05:00:17.206Z,98103.68
2018-06-18T05:00:48.801Z,98107.16
2018-06-18T05:01:20.396Z,98108.09
2018-06-18T05:01:51.974Z,98114.02
2018-06-18T05:02:23.555Z,98109.71
2018-06-18T05:02:55.134Z,98104.45
2018-06-18T05:03:26.746Z,98104.28
2018-06-18T05:03:58.338Z,98097.72
2018-06-18T05:04:29.949Z,98100.92
2018-06-18T05:05:01.562Z,98100.20
2018-06-18T05:05:33.187Z,98099.55
2018-06-18T05:06:04.765Z,98098.81
2018-06-18T05:06:36.349Z,98095.49
2018-06-18T05:07:07.955Z,98104.55
2018-06-18T05:07:39.537Z,98096.52
2018-06-18T05:08:11.121Z,98099.16
2018-06-18T05:08:42.706Z,98100.53
2018-06-18T05:09:14.380Z,98095.02
2018-06-18T05:09:45.976Z,98091.29
2018-06-18T05:10:17.557Z,98097.72
2018-06-18T05:10:49.202Z,98093.53
2018-06-18T05:11:20.817Z,98087.20
2018-06-18T05:11:52.428Z,98086.85
2018-06-18T05:12:24.010Z,98088.58
2018-06-18T05:12:55.649Z,98095.05
2018-06-18T05:13:27.253Z,98092.12
2018-06-18T05:13:58.842Z,98090.44
2018-06-18T05:14:30.412Z,98093.02
2018-06-18T05:15:02.004Z,98095.20
2018-06-18T05:15:33.633Z,98095.23
2018-06-18T05:16:05.263Z,98091.03
2018-06-18T05:16:36.849Z,98099.13
2018-06-18T05:17:08.420Z,98102.13
2018-06-18T05:17:39.997Z,98097.44
2018-06-18T05:18:11.564Z,98100.48
2018-06-18T05:18:43.160Z,98096.23
2018-06-18T05:19:14.769Z,98099.70
2018-06-18T05:19:46.373Z,98098.43
2018-06-18T05:20:17.950Z,98098.45
2018-06-18T05:20:49.602Z,98095.52
2018-06-18T05:21:21.259Z,98095.08
2018-06-18T05:21:53.549Z,98098.52
2018-06-18T05:22:25.123Z,98095.53
2018-06-18T05:22:56.706Z,98090.00
2018-06-18T05:23:28.289Z,98087.91
2018-06-18T05:23:59.884Z,98096.88
2018-06-18T05:24:31.486Z,98093.91
2018-06-18T05:25:03.138Z,98092.67
2018-06-18T05:25:34.745Z,98096.09
2018-06-18T05:26:06.350Z,98091.84
2018-06-18T05:26:37.961Z,98090.58
2018-06-18T05:27:09.547Z,98094.47
2018-06-18T05:27:41.120Z,98096.18
2018-06-18T05:28:12.762Z,98091.92
2018-06-18T05:28:44.347Z,98098.34
2018-06-18T05:29:15.933Z,98098.41
2018-06-18T05:29:47.527Z,98093.71
2018-06-18T05:30:19.096Z,98094.57
2018-06-18T05:30:50.736Z,98090.77
2018-06-18T05:31:22.324Z,98085.73
2018-06-18T05:31:53.934Z,98095.06
2018-06-18T05:32:25.509Z,98094.66
2018-06-18T05:32:57.110Z,98097.27
2018-06-18T05:33:28.680Z,98090.44
2018-06-18T05:34:00.262Z,98093.01
2018-06-18T05:34:31.872Z,98089.17
2018-06-18T05:35:03.453Z,98091.31
2018-06-18T05:35:35.046Z,98094.78
2018-06-18T05:36:06.645Z,98093.08
2018-06-18T05:36:38.255Z,98092.66
2018-06-18T05:37:09.828Z,98093.09
2018-06-18T05:37:41.451Z,98091.82
2018-06-18T05:38:13.043Z,98093.99
2018-06-18T05:38:44.640Z,98092.30
2018-06-18T05:39:16.242Z,98092.31
2018-06-18T05:39:47.826Z,98096.16
2018-06-18T05:40:19.446Z,98097.06
2018-06-18T05:40:51.029Z,98102.19
2018-06-18T05:41:22.600Z,98099.20
2018-06-18T05:41:54.181Z,98101.36
2018-06-18T05:42:25.781Z,98106.48
2018-06-18T05:42:57.396Z,98103.11
2018-06-18T05:43:29.004Z,98101.41
2018-06-18T05:44:00.678Z,98102.72
2018-06-18T05:44:32.301Z,98109.95
2018-06-18T05:45:03.889Z,98106.13
2018-06-18T05:45:35.502Z,98109.55
2018-06-18T05:46:07.086Z,98110.40
2018-06-18T05:46:38.669Z,98107.02
2018-06-18T05:47:10.261Z,98114.70
2018-06-18T05:47:41.857Z,98111.73
2018-06-18T05:48:13.446Z,98118.56
2018-06-18T05:48:45.036Z,98108.32
2018-06-18T05:49:16.666Z,98116.86
2018-06-18T05:49:48.265Z,98110.44
2018-06-18T05:50:19.899Z,98112.57
2018-06-18T05:50:51.545Z,98110.87
2018-06-18T05:51:23.151Z,98119.83
2018-06-18T05:51:54.724Z,98115.59
2018-06-18T05:52:26.309Z,98119.02
2018-06-18T05:52:57.893Z,98119.88
2018-06-18T05:53:29.477Z,98108.36
2018-06-18T05:54:01.062Z,98116.89
2018-06-18T05:54:32.664Z,98110.50
2018-06-18T05:55:04.260Z,98122.45
2018-06-18T05:55:35.909Z,98115.20
2018-06-18T05:56:07.494Z,98107.09
2018-06-18T05:56:39.078Z,98112.22
2018-06-18T05:57:10.658Z,98108.42
2018-06-18T05:57:42.262Z,98110.98
2018-06-18T05:58:13.858Z,98111.41
2018-06-18T05:58:45.459Z,98110.14
2018-06-18T05:59:17.065Z,98109.29
2018-06-18T05:59:48.674Z,98118.67
2018-06-18T06:00:20.289Z,98106.78
2018-06-18T06:00:51.938Z,98103.31
2018-06-18T06:01:23.520Z,98109.72
2018-06-18T06:01:55.096Z,98113.13
2018-06-18T06:02:26.697Z,98116.97
2018-06-18T06:02:58.385Z,98116.55
2018-06-18T06:03:29.969Z,98113.14
2018-06-18T06:04:01.538Z,98116.55
2018-06-18T06:04:33.141Z,98119.97
2018-06-18T06:05:04.730Z,98116.56
2018-06-18T06:05:36.317Z,98116.98
2018-06-18T06:06:07.930Z,98117.84
2018-06-18T06:06:39.539Z,98121.68
2018-06-18T06:07:11.146Z,98117.89
2018-06-18T06:07:42.754Z,98118.31
2018-06-18T06:08:14.324Z,98122.15
2018-06-18T06:08:45.902Z,98118.31
2018-06-18T06:09:17.496Z,98117.46
2018-06-18T06:09:49.145Z,98123.00
2018-06-18T06:10:20.763Z,98117.06
2018-06-18T06:10:52.373Z,98125.56
2018-06-18T06:11:24.008Z,98122.16
2018-06-18T06:11:55.589Z,98121.31
2018-06-18T06:12:27.172Z,98124.30
2018-06-18T06:12:58.800Z,98123.02
2018-06-18T06:13:30.377Z,98119.19
2018-06-18T06:14:01.969Z,98120.89
2018-06-18T06:14:33.557Z,98123.45
2018-06-18T06:15:05.166Z,98120.45
2018-06-18T06:15:36.736Z,98121.75
2018-06-18T06:16:08.346Z,98122.59
2018-06-18T06:16:39.960Z,98123.88
2018-06-18T06:17:11.561Z,98123.03
2018-06-18T06:17:43.165Z,98123.03
2018-06-18T06:18:14.749Z,98123.02
2018-06-18T06:18:46.363Z,98125.17
2018-06-18T06:19:17.975Z,98126.00
2018-06-18T06:19:49.586Z,98129.41
2018-06-18T06:20:21.174Z,98123.02
2018-06-18T06:20:52.742Z,98126.86
2018-06-18T06:21:24.327Z,98132.39
2018-06-18T06:21:55.978Z,98125.59
2018-06-18T06:22:27.567Z,98131.06
2018-06-18T06:22:59.148Z,98141.30
2018-06-18T06:23:30.728Z,98139.58
2018-06-18T06:24:02.317Z,98135.73
2018-06-18T06:24:33.912Z,98134.45
2018-06-18T06:25:05.499Z,98139.09
2018-06-18T06:25:37.102Z,98137.38
2018-06-18T06:26:08.718Z,98137.75
2018-06-18T06:26:40.350Z,98138.17
2018-06-18T06:27:11.998Z,98139.45
2018-06-18T06:27:43.581Z,98140.69
2018-06-18T06:28:15.185Z,98135.55
2018-06-18T06:28:46.780Z,98138.06
2018-06-18T06:29:18.356Z,98131.23
2018-06-18T06:29:49.932Z,98141.45